Time;durP1;ratioP1;P1;durP2;ratioP2;P2;SDS_P1;SDS_P2;PMS_P1;PMS_P2;Temp;Humidity;BMP_temperature;BMP_pressure;BME280_temperature;BME280_humidity;BME280_pressure;Samples;Min_cycle;Max_cycle;Signal;HPM_P1;HPM_P2
2024/03/22 00:03:19;;;;;;;49.63;24.85;;;;;;;9.12;82.34;100958.03;10165095;28;20049;-79
2024/03/22 00:08:19;;;;;;;44.03;25.42;;;;;;;9.13;82.29;100945.47;10163613;29;20748;-78
2024/03/22 00:13:20;;;;;;;54.67;29.92;;;;;;;9.05;83.44;100935.25;10144121;28;20077;-78
2024/03/22 00:18:21;;;;;;;52.78;29.92;;;;;;;9.41;80.87;100929.28;10119025;28;20054;-80
2024/03/22 00:23:21;;;;;;;52.50;26.45;;;;;;;9.39;80.58;100931.22;10126584;28;20092;-79
2024/03/22 00:28:22;;;;;;;50.50;29.30;;;;;;;9.28;81.82;100934.59;10143084;29;20488;-80
2024/03/22 00:33:23;;;;;;;53.92;27.92;;;;;;;9.37;81.15;100922.41;10126586;28;20047;-79
2024/03/22 00:38:24;;;;;;;61.78;28.23;;;;;;;9.04;82.93;100917.47;10109680;28;20059;-79
2024/03/22 00:43:25;;;;;;;59.67;31.70;;;;;;;9.18;83.35;100895.09;10128125;28;20052;-80
2024/03/22 00:48:25;;;;;;;50.45;25.15;;;;;;;9.02;83.13;100900.63;10159090;29;20763;-79
2024/03/22 00:53:26;;;;;;;57.00;29.67;;;;;;;9.39;81.71;100877.56;10138598;28;20044;-80
2024/03/22 00:58:27;;;;;;;50.00;24.15;;;;;;;9.15;82.82;100889.97;10096375;28;20052;-80
2024/03/22 01:03:28;;;;;;;55.67;29.87;;;;;;;9.42;82.54;100873.81;10112851;29;20058;-79
2024/03/22 01:08:29;;;;;;;65.97;33.72;;;;;;;9.18;83.95;100879.03;10136185;28;20533;-80
2024/03/22 01:13:30;;;;;;;61.45;31.55;;;;;;;9.48;82.28;100865.34;10115834;29;20059;-79
2024/03/22 01:18:30;;;;;;;58.05;28.92;;;;;;;9.01;84.91;100862.25;10133780;29;20087;-79
2024/03/22 01:23:31;;;;;;;60.65;32.00;;;;;;;9.58;81.64;100857.53;10102471;29;20057;-79
2024/03/22 01:28:32;;;;;;;58.92;31.02;;;;;;;9.35;83.33;100849.28;10111725;28;20090;-79
2024/03/22 01:33:33;;;;;;;51.30;24.17;;;;;;;9.47;82.63;100839.50;10155894;28;20051;-80
2024/03/22 01:38:33;;;;;;;64.60;30.63;;;;;;;9.60;82.43;100834.13;10139971;28;21823;-78
2024/03/22 01:43:34;;;;;;;61.08;30.65;;;;;;;9.68;82.27;100826.41;10161672;28;20423;-79
2024/03/22 01:48:35;;;;;;;56.13;30.58;;;;;;;9.59;83.79;100819.03;10141763;28;20064;-80
2024/03/22 01:53:37;;;;;;;58.42;29.90;;;;;;;9.71;84.59;100810.13;10151568;28;20107;-79
2024/03/22 01:58:39;;;;;;;60.03;30.45;;;;;;;9.55;85.31;100796.94;10134960;28;20103;-79
2024/03/22 02:03:40;;;;;;;61.80;33.53;;;;;;;9.43;87.13;100795.94;10158386;28;20056;-79
2024/03/22 02:08:41;;;;;;;57.97;29.65;;;;;;;9.61;86.52;100782.22;10144213;28;20598;-79
2024/03/22 02:13:45;;;;;;;61.47;32.17;;;;;;;9.77;85.31;100779.31;10149722;28;20415;-79
2024/03/22 02:18:46;;;;;;;56.30;28.63;;;;;;;9.76;85.35;100756.97;10156011;28;20190;-79
2024/03/22 02:23:47;;;;;;;61.80;31.38;;;;;;;9.73;86.06;100747.31;10129938;28;20140;-79
2024/03/22 02:28:47;;;;;;;56.92;29.15;;;;;;;9.46;86.21;100739.44;10172502;28;20139;-79
2024/03/22 02:33:48;;;;;;;51.80;25.13;;;;;;;9.43;86.67;100738.78;10166296;28;20063;-79
2024/03/22 02:38:49;;;;;;;62.78;29.48;;;;;;;9.38;87.00;100720.34;10134439;28;20316;-79
2024/03/22 02:43:49;;;;;;;60.47;28.48;;;;;;;9.57;85.90;100724.38;10144582;28;20119;-79
2024/03/22 02:48:50;;;;;;;70.93;31.23;;;;;;;9.62;85.25;100727.59;10152774;28;20087;-78
2024/03/22 02:53:51;;;;;;;60.90;29.42;;;;;;;9.62;86.45;100716.88;10155816;28;21199;-79
2024/03/22 02:58:52;;;;;;;63.70;30.47;;;;;;;9.58;87.03;100702.00;10104185;29;20427;-80
2024/03/22 03:03:53;;;;;;;62.50;31.90;;;;;;;9.50;88.06;100692.66;10143828;28;20058;-79
2024/03/22 03:08:54;;;;;;;63.33;30.27;;;;;;;9.73;86.54;100684.75;10120830;29;20059;-79
2024/03/22 03:13:55;;;;;;;58.88;25.88;;;;;;;9.56;86.44;100682.47;10136532;28;20139;-79
2024/03/22 03:18:55;;;;;;;64.32;28.17;;;;;;;9.42;88.25;100686.13;10140105;29;20099;-79
2024/03/22 03:23:56;;;;;;;64.55;30.55;;;;;;;9.69;87.49;100694.03;10157647;28;20076;-79
2024/03/22 03:28:57;;;;;;;58.67;28.40;;;;;;;9.90;85.43;100688.94;10145114;28;20067;-79
2024/03/22 03:33:58;;;;;;;60.80;28.10;;;;;;;9.54;87.77;100673.66;10140382;28;20515;-80
2024/03/22 03:38:58;;;;;;;61.40;28.77;;;;;;;9.79;86.65;100675.41;10130849;28;20194;-79
2024/03/22 03:43:59;;;;;;;55.30;26.25;;;;;;;9.70;87.65;100653.66;10156489;28;20530;-79
2024/03/22 03:49:00;;;;;;;58.15;27.58;;;;;;;9.61;88.25;100648.97;10123376;28;20106;-79
2024/03/22 03:54:01;;;;;;;59.92;28.05;;;;;;;9.70;87.66;100610.72;10166812;28;20051;-79
2024/03/22 03:59:01;;;;;;;59.63;27.05;;;;;;;9.92;86.19;100625.28;10144299;28;20051;-79
2024/03/22 04:04:04;;;;;;;57.40;28.83;;;;;;;10.07;85.04;100616.09;10136572;28;20070;-79
2024/03/22 04:09:05;;;;;;;58.47;26.15;;;;;;;9.66;87.48;100593.16;10158492;28;20110;-79
2024/03/22 04:14:06;;;;;;;54.25;26.73;;;;;;;10.11;84.44;100598.75;10146612;28;21261;-79
2024/03/22 04:19:07;;;;;;;46.20;23.58;;;;;;;9.72;86.57;100597.22;10148720;28;20139;-79
2024/03/22 04:24:08;;;;;;;64.40;29.63;;;;;;;9.96;85.42;100585.66;10118415;29;20059;-79
2024/03/22 04:29:09;;;;;;;58.92;26.95;;;;;;;9.83;86.05;100583.84;10131773;28;20059;-79
2024/03/22 04:34:10;;;;;;;57.88;27.48;;;;;;;9.83;86.58;100566.91;10127215;28;20127;-79
2024/03/22 04:39:12;;;;;;;52.92;25.98;;;;;;;9.77;86.51;100576.28;10131900;28;20058;-79
2024/03/22 04:44:12;;;;;;;60.23;27.17;;;;;;;9.51;89.68;100580.88;10160283;28;20177;-79
2024/03/22 04:49:13;;;;;;;55.10;26.98;;;;;;;9.69;88.27;100560.75;10174082;28;20194;-79
2024/03/22 04:54:14;;;;;;;58.15;26.58;;;;;;;9.67;88.15;100564.50;10142768;28;20396;-79
2024/03/22 04:59:15;;;;;;;54.72;26.23;;;;;;;9.93;86.59;100568.81;10139969;28;20408;-79
2024/03/22 05:04:15;;;;;;;61.70;27.52;;;;;;;9.94;86.28;100558.94;10160121;29;20047;-79
2024/03/22 05:09:16;;;;;;;56.42;24.33;;;;;;;9.90;86.32;100539.53;10160853;28;20540;-79
2024/03/22 05:14:19;;;;;;;53.28;24.80;;;;;;;9.83;86.61;100550.81;10169009;28;20052;-79
2024/03/22 05:19:20;;;;;;;59.88;26.73;;;;;;;9.71;88.10;100534.66;10152896;28;20055;-80
2024/03/22 05:24:21;;;;;;;60.13;26.60;;;;;;;9.72;88.44;100533.69;10178383;28;20777;-79
2024/03/22 05:29:21;;;;;;;55.17;27.05;;;;;;;10.00;86.44;100531.63;10148069;28;20122;-79
2024/03/22 05:34:22;;;;;;;56.83;26.63;;;;;;;9.95;87.10;100517.69;10142182;28;20180;-79
2024/03/22 05:39:23;;;;;;;59.38;24.65;;;;;;;10.02;87.05;100516.28;10168658;28;20491;-79
2024/03/22 05:44:24;;;;;;;50.88;24.00;;;;;;;10.05;87.06;100513.34;10153899;28;20059;-79
2024/03/22 05:49:24;;;;;;;54.42;24.48;;;;;;;10.15;86.61;100518.88;10131632;28;20060;-79
2024/03/22 05:54:26;;;;;;;50.40;25.52;;;;;;;10.13;87.21;100518.13;10168500;28;20062;-79
2024/03/22 05:59:27;;;;;;;49.78;22.33;;;;;;;10.11;87.50;100520.91;10139144;29;20095;-79
2024/03/22 06:04:28;;;;;;;51.17;25.70;;;;;;;10.06;88.58;100530.31;10150700;28;20123;-79
2024/03/22 06:09:45;;;;;;;46.85;23.73;;;;;;;10.40;86.32;100520.50;10164582;28;20460;-80
2024/03/22 06:14:46;;;;;;;47.15;21.35;;;;;;;10.38;86.07;100515.25;10141748;28;20063;-79
2024/03/22 06:19:47;;;;;;;37.33;16.00;;;;;;;10.43;85.78;100516.72;10149964;28;20193;-79
2024/03/22 06:24:48;;;;;;;46.55;21.20;;;;;;;10.34;86.67;100499.50;10122708;28;20051;-80
2024/03/22 06:29:49;;;;;;;45.50;21.23;;;;;;;10.33;87.03;100492.41;10157367;28;20052;-79
2024/03/22 06:34:49;;;;;;;47.53;22.83;;;;;;;10.69;84.82;100488.63;10175389;28;20108;-79
2024/03/22 06:39:50;;;;;;;45.42;23.92;;;;;;;10.57;85.52;100482.44;10134055;28;20248;-80
2024/03/22 06:44:51;;;;;;;42.05;22.10;;;;;;;10.53;86.07;100475.59;10155788;28;20054;-79
2024/03/22 06:49:51;;;;;;;49.00;20.48;;;;;;;10.58;86.37;100473.38;10145584;28;20071;-78
2024/03/22 06:54:53;;;;;;;35.72;18.30;;;;;;;10.63;85.42;100482.91;10160032;28;20083;-79
2024/03/22 06:59:54;;;;;;;43.47;22.48;;;;;;;10.77;85.35;100461.16;10158382;28;21533;-80
2024/03/22 07:04:54;;;;;;;42.35;20.77;;;;;;;10.67;85.98;100476.31;10127396;28;20044;-80
2024/03/22 07:09:56;;;;;;;45.90;22.42;;;;;;;10.91;84.69;100478.84;10144937;28;20051;-80
2024/03/22 07:14:57;;;;;;;39.40;20.73;;;;;;;10.36;88.65;100490.34;10167258;28;20130;-79
2024/03/22 07:20:10;;;;;;;40.15;21.20;;;;;;;10.85;85.26;100466.78;11312651;23;20055;-78
2024/03/22 07:25:11;;;;;;;42.22;20.73;;;;;;;10.63;86.63;100474.84;10244251;28;20134;-78
2024/03/22 07:30:12;;;;;;;38.22;21.08;;;;;;;10.99;84.48;100465.66;10237831;28;20510;-79
2024/03/22 07:35:13;;;;;;;40.05;18.75;;;;;;;10.68;86.54;100451.16;10253313;28;20067;-78
2024/03/22 07:40:14;;;;;;;36.05;18.55;;;;;;;10.90;84.25;100436.84;10251275;28;20462;-77
2024/03/22 07:45:15;;;;;;;38.58;19.55;;;;;;;11.06;83.48;100430.09;10241461;28;20050;-79
2024/03/22 07:50:15;;;;;;;39.00;19.65;;;;;;;11.08;83.45;100437.16;10248158;28;20082;-76
2024/03/22 07:55:16;;;;;;;33.00;18.58;;;;;;;10.87;84.35;100437.09;10232739;28;20050;-77
2024/03/22 08:00:17;;;;;;;32.80;15.90;;;;;;;11.26;81.11;100433.84;10244362;28;20043;-78
2024/03/22 08:05:19;;;;;;;33.38;17.67;;;;;;;11.43;81.18;100435.09;10262379;28;20046;-78
2024/03/22 08:10:21;;;;;;;32.88;19.55;;;;;;;11.21;82.36;100436.03;10247231;28;20047;-79
2024/03/22 08:15:22;;;;;;;33.78;17.98;;;;;;;11.31;81.12;100438.00;10229050;28;20044;-78
2024/03/22 08:20:24;;;;;;;31.35;17.77;;;;;;;11.26;81.37;100433.00;10230325;28;20051;-77
2024/03/22 08:25:25;;;;;;;31.98;16.38;;;;;;;11.59;79.56;100429.28;10274925;28;21530;-77
2024/03/22 08:30:25;;;;;;;31.10;14.55;;;;;;;11.65;79.02;100417.16;10244416;28;20126;-78
2024/03/22 08:35:26;;;;;;;31.25;16.80;;;;;;;11.04;81.18;100431.19;10233513;28;20036;-79
2024/03/22 08:40:27;;;;;;;30.23;16.67;;;;;;;11.64;79.09;100421.69;10234042;28;20047;-78
2024/03/22 08:45:28;;;;;;;35.60;18.20;;;;;;;11.80;77.90;100420.41;10219124;28;20043;-79
2024/03/22 08:50:29;;;;;;;29.40;16.65;;;;;;;11.75;78.07;100407.31;10249008;28;20451;-79
2024/03/22 08:55:30;;;;;;;29.42;15.73;;;;;;;11.46;78.40;100407.09;10264379;28;20039;-78
2024/03/22 09:00:31;;;;;;;31.63;16.48;;;;;;;11.38;78.64;100396.13;10236064;28;20051;-77
2024/03/22 09:05:33;;;;;;;29.23;17.38;;;;;;;11.66;76.39;100403.59;10265317;28;20034;-77
2024/03/22 09:10:34;;;;;;;32.53;19.27;;;;;;;12.17;74.12;100393.81;10261511;28;20054;-77
2024/03/22 09:15:34;;;;;;;27.77;15.38;;;;;;;11.56;74.84;100378.44;10256565;28;20039;-78
2024/03/22 09:20:35;;;;;;;30.02;16.70;;;;;;;11.45;74.16;100362.38;10236288;28;20141;-78
2024/03/22 09:25:35;;;;;;;26.80;14.95;;;;;;;11.62;73.07;100367.16;10246804;28;20546;-79
2024/03/22 09:30:40;;;;;;;29.80;13.95;;;;;;;11.66;72.98;100357.84;10245013;28;20513;-79
2024/03/22 09:35:41;;;;;;;28.90;14.20;;;;;;;11.57;72.58;100358.63;10212792;28;20082;-79
2024/03/22 09:40:42;;;;;;;27.58;15.68;;;;;;;11.80;72.21;100350.44;10240171;28;20044;-76
2024/03/22 09:45:44;;;;;;;27.45;14.90;;;;;;;11.63;71.49;100339.28;10246273;28;20517;-79
2024/03/22 09:50:49;;;;;;;25.20;14.60;;;;;;;12.10;69.30;100342.34;10233596;28;20043;-79
2024/03/22 09:55:51;;;;;;;29.13;16.35;;;;;;;12.16;68.76;100338.25;10254058;28;20042;-79
2024/03/22 10:00:53;;;;;;;27.80;15.77;;;;;;;12.09;69.17;100323.63;10254458;28;20047;-79
2024/03/22 10:05:53;;;;;;;22.45;12.73;;;;;;;12.09;67.82;100329.84;10257667;28;20042;-78
2024/03/22 10:10:54;;;;;;;27.63;15.45;;;;;;;12.72;67.07;100329.63;10245864;28;20061;-77
2024/03/22 10:15:56;;;;;;;29.90;16.10;;;;;;;12.63;66.41;100335.03;10280827;28;20031;-78
2024/03/22 10:21:01;;;;;;;25.48;14.38;;;;;;;12.30;65.50;100323.59;10268199;28;20051;-78
2024/03/22 10:26:03;;;;;;;27.33;15.43;;;;;;;12.97;64.95;100319.31;10240730;28;20046;-79
2024/03/22 10:31:04;;;;;;;17.37;11.43;;;;;;;12.31;67.47;100322.59;10264544;28;20064;-78
2024/03/22 10:36:06;;;;;;;24.13;14.88;;;;;;;12.28;68.43;100317.47;10243334;28;20047;-79
2024/03/22 10:41:07;;;;;;;19.63;10.63;;;;;;;11.67;70.31;100311.09;10260343;28;20046;-79
2024/03/22 10:46:09;;;;;;;22.52;13.55;;;;;;;12.42;68.17;100311.72;10220263;28;20051;-78
2024/03/22 10:51:11;;;;;;;25.58;15.65;;;;;;;12.96;66.26;100310.38;10220583;28;20078;-79
2024/03/22 10:56:16;;;;;;;24.48;13.38;;;;;;;12.29;68.64;100324.59;10217555;28;20143;-78
2024/03/22 11:01:23;;;;;;;20.08;11.35;;;;;;;11.75;69.48;100310.44;10232063;28;20055;-79
2024/03/22 11:06:27;;;;;;;19.42;10.77;;;;;;;11.99;68.25;100310.16;10219862;28;20058;-77
2024/03/22 11:11:29;;;;;;;18.77;10.02;;;;;;;12.19;68.41;100296.75;10203353;28;20109;-77
2024/03/22 11:16:30;;;;;;;25.40;14.80;;;;;;;12.15;70.02;100299.72;10197975;28;20067;-76
2024/03/22 11:21:34;;;;;;;22.92;11.98;;;;;;;12.50;67.47;100289.47;10173319;28;20058;-76
2024/03/22 11:26:34;;;;;;;23.25;14.65;;;;;;;12.79;66.74;100287.66;10171835;28;20146;-78
2024/03/22 11:31:36;;;;;;;25.25;15.38;;;;;;;12.07;70.31;100269.09;10168430;28;20043;-76
2024/03/22 11:36:37;;;;;;;26.30;15.25;;;;;;;12.60;69.18;100280.41;10156562;28;20103;-78
2024/03/22 11:41:39;;;;;;;26.52;16.25;;;;;;;11.94;70.40;100274.69;10158804;28;20055;-78
2024/03/22 11:46:40;;;;;;;31.23;15.95;;;;;;;11.95;73.15;100293.38;10152866;28;20054;-77
2024/03/22 11:51:40;;;;;;;28.83;15.68;;;;;;;11.54;75.70;100290.78;10156832;28;20046;-78
2024/03/22 11:56:41;;;;;;;27.95;15.98;;;;;;;11.66;76.57;100290.59;10155136;28;20075;-77
2024/03/22 12:01:42;;;;;;;25.33;14.57;;;;;;;11.18;79.96;100276.84;10159990;28;20058;-77
2024/03/22 12:06:44;;;;;;;38.17;19.02;;;;;;;11.28;82.92;100294.75;10187478;28;20090;-78
2024/03/22 12:11:45;;;;;;;33.20;19.27;;;;;;;11.69;81.54;100286.78;10163615;28;20179;-78
2024/03/22 12:16:46;;;;;;;30.45;17.23;;;;;;;11.23;84.64;100291.59;10176250;28;20086;-78
2024/03/22 12:21:47;;;;;;;29.65;18.75;;;;;;;10.78;90.97;100289.09;10176348;28;20059;-78
2024/03/22 12:26:48;;;;;;;34.00;20.23;;;;;;;10.72;90.86;100286.03;10153447;28;20322;-78
2024/03/22 12:31:48;;;;;;;33.47;20.55;;;;;;;10.77;90.40;100279.31;10186151;28;20087;-77
2024/03/22 12:36:49;;;;;;;33.90;20.75;;;;;;;10.87;89.65;100270.50;10184117;28;20051;-77
2024/03/22 12:41:50;;;;;;;36.50;22.65;;;;;;;11.08;88.37;100267.81;10161360;28;20052;-77
2024/03/22 12:46:51;;;;;;;33.45;20.65;;;;;;;11.01;87.06;100267.47;10165988;28;20054;-78
2024/03/22 12:51:52;;;;;;;35.60;21.90;;;;;;;11.38;84.84;100253.59;10194597;28;20075;-77
2024/03/22 12:56:52;;;;;;;33.28;20.63;;;;;;;11.22;84.31;100240.66;10205153;28;20055;-77
2024/03/22 13:01:53;;;;;;;35.65;23.48;;;;;;;11.13;85.46;100244.09;10180211;28;20060;-78
2024/03/22 13:06:55;;;;;;;39.38;20.83;;;;;;;11.03;87.05;100233.28;10172523;28;20189;-78
2024/03/22 13:11:55;;;;;;;38.63;23.25;;;;;;;10.56;88.96;100238.16;10181715;28;20079;-78
2024/03/22 13:16:56;;;;;;;40.05;21.70;;;;;;;10.72;87.82;100237.69;10145761;28;20048;-79
2024/03/22 13:21:57;;;;;;;36.08;22.42;;;;;;;11.18;86.53;100223.91;10179147;28;20047;-79
2024/03/22 13:26:57;;;;;;;40.50;23.50;;;;;;;10.49;91.82;100234.25;10184862;28;20062;-78
2024/03/22 13:31:58;;;;;;;39.20;25.15;;;;;;;10.27;96.64;100217.22;10156630;28;20118;-78
2024/03/22 13:36:59;;;;;;;41.58;23.15;;;;;;;10.47;91.32;100215.56;10192372;28;20601;-78
2024/03/22 13:42:01;;;;;;;47.03;28.20;;;;;;;10.46;94.21;100210.34;10187896;28;20059;-77
2024/03/22 13:47:04;;;;;;;46.42;28.98;;;;;;;10.00;100.00;100206.06;10176610;28;20515;-77
2024/03/22 13:52:05;;;;;;;50.20;30.73;;;;;;;10.12;100.00;100189.81;10174322;28;20486;-77
2024/03/22 13:57:06;;;;;;;54.50;29.50;;;;;;;9.90;100.00;100200.59;10169072;28;20059;-78
2024/03/22 14:02:07;;;;;;;52.75;28.30;;;;;;;9.97;100.00;100198.28;10183827;28;20692;-78
2024/03/22 14:07:09;;;;;;;54.90;29.23;;;;;;;9.96;100.00;100201.94;10203934;28;20062;-77
2024/03/22 14:12:10;;;;;;;52.67;30.63;;;;;;;9.75;100.00;100189.25;10192125;28;20066;-78
2024/03/22 14:17:11;;;;;;;53.60;29.95;;;;;;;10.10;100.00;100186.41;10168596;28;20047;-79
2024/03/22 14:22:12;;;;;;;52.63;29.00;;;;;;;10.48;100.00;100181.53;10191593;28;20048;-77
2024/03/22 14:27:14;;;;;;;47.00;28.50;;;;;;;10.50;100.00;100172.34;10181570;28;20526;-77
2024/03/22 14:32:15;;;;;;;56.43;26.00;;;;;;;10.24;100.00;100169.16;10159182;28;20142;-78
2024/03/22 14:37:15;;;;;;;44.95;27.00;;;;;;;10.26;100.00;100163.69;10178212;28;20068;-77
2024/03/22 14:42:16;;;;;;;45.08;26.13;;;;;;;10.57;100.00;100160.09;10203678;28;20072;-78
2024/03/22 14:47:17;;;;;;;46.13;25.77;;;;;;;10.06;100.00;100146.53;10186769;28;20086;-77
2024/03/22 14:52:17;;;;;;;53.42;27.60;;;;;;;9.41;100.00;100153.56;10175108;28;20069;-78
2024/03/22 14:57:19;;;;;;;51.95;28.38;;;;;;;9.39;100.00;100160.88;10179868;28;20059;-78
2024/03/22 15:02:19;;;;;;;55.85;29.23;;;;;;;9.61;100.00;100158.19;10161422;28;20140;-78
2024/03/22 15:07:22;;;;;;;55.17;29.20;;;;;;;9.82;100.00;100149.34;10183780;28;20063;-78
2024/03/22 15:12:22;;;;;;;49.55;28.65;;;;;;;9.55;100.00;100139.91;10173307;28;20106;-77
2024/03/22 15:17:23;;;;;;;51.50;26.65;;;;;;;9.78;100.00;100135.34;10170008;28;20044;-78
2024/03/22 15:22:24;;;;;;;46.10;23.33;;;;;;;9.81;100.00;100131.56;10170170;28;20060;-80
2024/03/22 15:27:27;;;;;;;41.78;20.95;;;;;;;8.99;100.00;100139.91;10153268;28;20051;-77
2024/03/22 15:32:28;;;;;;;36.53;20.67;;;;;;;9.56;100.00;100117.47;10163514;28;20255;-78
2024/03/22 15:37:29;;;;;;;36.30;18.92;;;;;;;9.46;100.00;100130.78;10155695;28;20051;-78
2024/03/22 15:42:30;;;;;;;36.30;19.48;;;;;;;9.56;100.00;100113.94;10183937;28;20058;-76
2024/03/22 15:47:34;;;;;;;33.08;18.40;;;;;;;9.14;100.00;100108.38;10168086;28;20051;-78
2024/03/22 15:52:35;;;;;;;35.03;18.08;;;;;;;9.19;100.00;100114.22;10155001;28;20096;-78
2024/03/22 15:57:36;;;;;;;35.60;18.70;;;;;;;9.17;100.00;100113.50;10146923;28;20203;-78
2024/03/22 16:02:37;;;;;;;35.72;17.75;;;;;;;8.88;100.00;100097.88;10157499;28;20150;-79
2024/03/22 16:07:37;;;;;;;32.22;17.92;;;;;;;9.00;100.00;100099.59;10157111;28;20070;-79
2024/03/22 16:12:38;;;;;;;38.67;20.52;;;;;;;9.11;100.00;100096.06;10197191;28;20103;-77
2024/03/22 16:17:40;;;;;;;40.28;17.83;;;;;;;8.99;100.00;100097.88;10184725;28;20062;-79
2024/03/22 16:22:41;;;;;;;38.15;20.45;;;;;;;9.02;100.00;100086.94;10164597;28;20052;-78
2024/03/22 16:27:42;;;;;;;36.00;17.88;;;;;;;9.02;100.00;100076.22;10162597;28;20072;-78
2024/03/22 16:32:43;;;;;;;35.40;18.23;;;;;;;8.91;100.00;100068.16;10143170;28;20054;-78
2024/03/22 16:37:44;;;;;;;34.23;17.77;;;;;;;9.16;100.00;100068.88;10149558;28;20065;-79
2024/03/22 16:42:48;;;;;;;47.17;21.88;;;;;;;9.36;100.00;100069.97;10150467;28;20080;-77
2024/03/22 16:47:52;;;;;;;41.60;21.02;;;;;;;9.02;100.00;100065.50;10195141;28;20040;-76
2024/03/22 16:52:53;;;;;;;33.70;18.58;;;;;;;9.13;100.00;100061.94;10178504;28;20054;-78
2024/03/22 16:57:54;;;;;;;37.30;19.65;;;;;;;9.14;100.00;100058.31;10154673;28;20052;-78
2024/03/22 17:02:55;;;;;;;34.70;18.38;;;;;;;9.12;100.00;100065.59;10183011;28;20767;-78
2024/03/22 17:07:56;;;;;;;33.80;17.80;;;;;;;8.95;100.00;100071.47;10165935;28;20047;-78
2024/03/22 17:12:56;;;;;;;27.27;14.13;;;;;;;8.78;100.00;100059.41;10178159;28;20058;-78
2024/03/22 17:17:57;;;;;;;32.95;16.13;;;;;;;8.98;100.00;100045.28;10147171;28;20067;-76
2024/03/22 17:22:58;;;;;;;30.25;15.80;;;;;;;8.83;100.00;100039.31;10173552;28;20574;-79
2024/03/22 17:27:59;;;;;;;29.52;16.15;;;;;;;8.92;100.00;100042.25;10153413;28;20048;-78
2024/03/22 17:33:00;;;;;;;35.58;17.00;;;;;;;8.95;100.00;100042.00;10173547;28;20052;-76
2024/03/22 17:38:01;;;;;;;33.63;16.52;;;;;;;8.89;100.00;100045.19;10185019;28;20058;-78
2024/03/22 17:43:03;;;;;;;32.05;15.95;;;;;;;8.96;100.00;100051.72;10189903;28;20072;-76
2024/03/22 17:48:05;;;;;;;35.38;16.77;;;;;;;9.11;100.00;100041.63;10209990;28;20062;-77
2024/03/22 17:53:06;;;;;;;40.95;19.33;;;;;;;8.90;100.00;100053.06;10185853;28;20138;-78
2024/03/22 17:58:07;;;;;;;39.00;18.05;;;;;;;9.00;100.00;100039.81;10152226;28;20443;-79
2024/03/22 18:03:08;;;;;;;43.03;20.48;;;;;;;8.59;100.00;100035.91;10160064;28;20056;-79
2024/03/22 18:08:09;;;;;;;44.85;19.90;;;;;;;9.15;100.00;100068.03;10182492;28;20083;-78
2024/03/22 18:13:10;;;;;;;12.17;7.33;;;;;;;8.91;100.00;100068.16;10186126;28;20078;-78
2024/03/22 18:18:11;;;;;;;13.10;5.68;;;;;;;8.74;100.00;100082.03;10171407;28;20052;-78
2024/03/22 18:23:16;;;;;;;13.88;5.72;;;;;;;8.30;100.00;100084.47;10187192;28;20054;-77
2024/03/22 18:28:17;;;;;;;11.55;5.82;;;;;;;8.51;100.00;100083.84;10163807;28;20073;-78
2024/03/22 18:33:18;;;;;;;11.65;6.68;;;;;;;8.54;100.00;100072.88;10164536;28;20083;-78
2024/03/22 18:38:19;;;;;;;12.32;6.50;;;;;;;8.37;100.00;100085.72;10173973;28;20048;-77
2024/03/22 18:43:20;;;;;;;14.95;6.75;;;;;;;8.32;100.00;100095.06;10159553;28;20063;-78
2024/03/22 18:48:20;;;;;;;28.20;8.57;;;;;;;7.82;100.00;100091.72;10154975;28;20051;-77
2024/03/22 18:53:21;;;;;;;23.02;9.13;;;;;;;8.03;100.00;100084.72;10190822;28;20059;-75
2024/03/22 18:58:22;;;;;;;27.30;9.40;;;;;;;7.59;100.00;100088.03;10189803;28;20055;-77
2024/03/22 19:03:23;;;;;;;20.73;9.38;;;;;;;7.58;100.00;100071.16;10176811;28;20087;-78
2024/03/22 19:08:24;;;;;;;30.23;10.35;;;;;;;7.66;100.00;100075.94;10189149;28;20119;-76
2024/03/22 19:13:25;;;;;;;31.37;11.37;;;;;;;7.75;100.00;100061.88;10174975;28;20059;-78
2024/03/22 19:18:26;;;;;;;30.75;10.18;;;;;;;7.88;100.00;100064.50;10163382;28;20059;-78
2024/03/22 19:23:27;;;;;;;30.52;10.32;;;;;;;7.77;100.00;100056.44;10154015;28;20103;-78
2024/03/22 19:28:29;;;;;;;27.45;10.90;;;;;;;7.81;100.00;100065.91;10164316;28;20099;-79
2024/03/22 19:33:30;;;;;;;36.65;10.80;;;;;;;7.78;100.00;100058.97;10155927;28;20088;-78
2024/03/22 19:38:31;;;;;;;35.60;13.32;;;;;;;7.80;100.00;100057.03;10157780;28;20185;-79
2024/03/22 19:43:34;;;;;;;30.00;11.60;;;;;;;7.85;100.00;100056.72;10157642;28;20051;-80
2024/03/22 19:48:35;;;;;;;33.78;13.00;;;;;;;7.91;100.00;100053.56;10135332;28;20067;-79
2024/03/22 19:53:38;;;;;;;33.22;13.18;;;;;;;7.99;100.00;100051.16;10151020;28;20048;-78
2024/03/22 19:58:39;;;;;;;29.73;11.57;;;;;;;7.80;100.00;100035.66;10157632;28;20074;-80
2024/03/22 20:03:40;;;;;;;31.05;12.35;;;;;;;7.76;100.00;100041.34;10148187;28;20044;-77
2024/03/22 20:08:41;;;;;;;32.45;12.65;;;;;;;7.95;100.00;100049.69;10140005;28;20503;-78
2024/03/22 20:13:41;;;;;;;39.60;14.05;;;;;;;7.75;100.00;100056.53;10153921;28;20059;-78
2024/03/22 20:18:42;;;;;;;30.88;12.35;;;;;;;7.68;100.00;100047.28;10142418;28;20059;-78
2024/03/22 20:23:43;;;;;;;31.98;13.50;;;;;;;7.76;100.00;100034.16;10160245;28;20048;-77
2024/03/22 20:28:44;;;;;;;29.25;12.57;;;;;;;7.35;100.00;100043.44;10142272;28;20052;-78
2024/03/22 20:33:46;;;;;;;36.67;13.77;;;;;;;7.36;100.00;100034.44;10164580;28;20064;-79
2024/03/22 20:38:47;;;;;;;;;;;;;;;7.56;100.00;100040.16;10149483;28;20058;-77
2024/03/22 20:43:49;;;;;;;33.33;13.13;;;;;;;7.47;100.00;100031.00;10152740;29;19931;-78
2024/03/22 20:48:51;;;;;;;32.42;13.50;;;;;;;7.53;100.00;100029.69;10179027;29;20071;-78
2024/03/22 20:53:54;;;;;;;41.80;14.55;;;;;;;7.49;100.00;100011.22;10190763;29;20139;-78
2024/03/22 20:58:56;;;;;;;35.45;14.90;;;;;;;7.74;100.00;100014.72;10220341;29;20036;-77
2024/03/22 21:03:58;;;;;;;42.03;16.15;;;;;;;7.71;100.00;100009.63;10206389;29;20077;-78
2024/03/22 21:09:00;;;;;;;35.78;15.35;;;;;;;7.80;100.00;100000.88;10192789;29;20052;-78
2024/03/22 21:14:03;;;;;;;36.03;15.63;;;;;;;7.82;100.00;100003.47;10191162;29;20048;-79
2024/03/22 21:19:05;;;;;;;39.63;15.57;;;;;;;7.71;100.00;99980.22;10195393;29;20059;-78
2024/03/22 21:24:07;;;;;;;42.50;14.73;;;;;;;7.74;100.00;99979.97;10223736;29;20075;-78
2024/03/22 21:29:09;;;;;;;35.07;15.63;;;;;;;7.72;100.00;99974.72;10214876;29;20055;-79
2024/03/22 21:34:11;;;;;;;43.78;14.95;;;;;;;7.83;100.00;99960.53;10179823;29;20067;-77
2024/03/22 21:39:13;;;;;;;43.10;15.07;;;;;;;7.70;100.00;99954.41;10189016;29;20052;-77
2024/03/22 21:44:15;;;;;;;35.88;16.13;;;;;;;7.69;100.00;99937.53;10188287;29;20488;-78
2024/03/22 21:49:17;;;;;;;49.80;16.13;;;;;;;7.78;100.00;99943.16;10204805;29;20047;-79
2024/03/22 21:54:20;;;;;;;42.72;15.40;;;;;;;7.75;100.00;99938.03;10188554;29;20048;-78
2024/03/22 21:59:22;;;;;;;35.97;15.45;;;;;;;7.60;100.00;99940.91;10211418;29;20048;-77
2024/03/22 22:04:24;;;;;;;42.20;15.85;;;;;;;7.61;100.00;99931.06;10227508;29;20048;-77
2024/03/22 22:09:25;;;;;;;42.10;16.67;;;;;;;7.64;100.00;99939.69;10203832;29;20055;-76
2024/03/22 22:14:27;;;;;;;44.53;15.88;;;;;;;7.57;100.00;99932.25;10180831;29;20363;-77
2024/03/22 22:19:29;;;;;;;38.30;16.43;;;;;;;7.58;100.00;99939.31;10202758;29;20047;-77
2024/03/22 22:24:31;;;;;;;43.85;17.08;;;;;;;7.52;100.00;99937.13;10196874;29;20299;-77
2024/03/22 22:29:32;;;;;;;43.15;16.40;;;;;;;7.53;100.00;99923.63;10178170;29;20077;-77
2024/03/22 22:34:35;;;;;;;47.03;18.13;;;;;;;7.54;100.00;99913.78;10215062;29;20067;-76
2024/03/22 22:39:37;;;;;;;39.92;16.58;;;;;;;7.53;100.00;99909.41;10204737;29;20048;-78